North Star, Ohio
Current Conditions -  °F | °C
As of 8:15 PM on Sunday 23 Nov 2014 (Local Time) from KVES Reporting Station
Moderate Rain Moderate Rain  
Wind Chill: 52°   Ceiling: 900
Heat Index: 52°   Visibility: 7mi
Dew Point: 52°   Wind: 21mph
Humidity: 100%   Direction: 140°SE
Pressure: 29.38"   Gusts: 29mph
Location:  40.32°N, 84.57°W
Report Text: KVES 240115Z AUTO 14018G25KT 7SM RA OVC009 11/11 A2938 RMK AO2 P0004
Loading
Personal Weather Stations






























Interactive Weather Map New forecast layout! Learn more

10-Day Weather Forecast

Advertisements
Track Severe Weather on mobile